Time;durP1;ratioP1;P1;durP2;ratioP2;P2;SDS_P1;SDS_P2;PMS_P1;PMS_P2;Temp;Humidity;BMP_temperature;BMP_pressure;BME280_temperature;BME280_humidity;BME280_pressure;Samples;Min_cycle;Max_cycle;Signal;HPM_P1;HPM_P2
2021/01/31 00:13:59;;;;;;;;;;;;;;;-4.23;100.00;99087.54;10409607;84;21042;-84
2021/01/31 01:02:13;;;;;;;43.63;16.65;;;;;;;-4.30;100.00;99087.42;10097153;87;21205;-83
2021/01/31 02:42:27;;;;;;;24.23;9.28;;;;;;;-3.39;100.00;99055.73;8904133;94;21114;-82
2021/01/31 03:14:49;;;;;;;89.77;32.90;;;;;;;-3.21;100.00;99042.88;9505969;89;21623;-84
2021/01/31 03:29:54;;;;;;;29.98;12.70;;;;;;;-3.10;100.00;99013.66;9841884;88;21086;-84
2021/01/31 03:45:03;;;;;;;17.65;7.92;;;;;;;-3.14;100.00;99031.84;10414750;82;21128;-84
2021/01/31 04:00:15;;;;;;;27.77;10.13;;;;;;;-3.20;100.00;99027.40;10433477;85;21066;-84
2021/01/31 04:15:42;;;;;;;82.17;24.52;;;;;;;-3.11;100.00;99079.17;10422496;85;21061;-84
2021/01/31 04:30:49;;;;;;;18.98;8.00;;;;;;;-3.11;100.00;99090.25;10244781;85;21229;-84
2021/01/31 04:45:56;;;;;;;14.53;6.62;;;;;;;-3.18;100.00;99105.13;10264976;85;21559;-84
2021/01/31 05:01:11;;;;;;;16.45;7.75;;;;;;;-3.02;100.00;99109.50;10273390;87;21615;-83
2021/01/31 05:17:16;;;;;;;19.02;8.88;;;;;;;-3.12;100.00;99105.73;10453779;85;21034;-84
2021/01/31 05:32:27;;;;;;;17.05;6.53;;;;;;;-3.13;100.00;99113.86;10437535;85;21077;-89
2021/01/31 05:47:41;;;;;;;13.60;6.30;;;;;;;-3.22;100.00;99131.85;10107383;87;21075;-87
2021/01/31 06:03:01;;;;;;;12.93;6.33;;;;;;;-3.03;100.00;99148.89;10343577;84;21096;-86
2021/01/31 06:18:12;;;;;;;21.30;7.67;;;;;;;-3.21;100.00;99157.89;10467555;85;21125;-87
2021/01/31 06:33:18;;;;;;;15.28;7.03;;;;;;;-3.11;100.00;99173.65;10469229;85;21022;-86
2021/01/31 06:48:39;;;;;;;21.37;11.67;;;;;;;-3.15;100.00;99176.42;9982831;89;22278;-88
2021/01/31 07:04:25;;;;;;;550.48;264.77;;;;;;;-2.97;100.00;99195.23;10400195;84;21816;-87
2021/01/31 07:19:35;;;;;;;17.65;10.43;;;;;;;-2.90;100.00;99194.85;10353222;85;21024;-88
2021/01/31 07:34:46;;;;;;;31.85;15.43;;;;;;;-2.86;100.00;99200.20;10548965;84;21027;-89
2021/01/31 07:50:37;;;;;;;29.92;14.95;;;;;;;-2.75;100.00;99219.38;10586352;84;21509;-91
2021/01/31 08:06:08;;;;;;;48.87;23.77;;;;;;;-2.62;100.00;99215.28;10141319;86;21627;-92
2021/01/31 08:21:36;;;;;;;28.40;15.13;;;;;;;-2.46;100.00;99231.20;10266565;84;21083;-89
2021/01/31 08:36:42;;;;;;;30.60;14.25;;;;;;;-2.43;100.00;99237.47;10547773;84;21119;-89
2021/01/31 08:51:57;;;;;;;34.00;14.60;;;;;;;-2.17;100.00;99254.93;10602045;84;21225;-83
2021/01/31 09:07:03;;;;;;;123.30;52.75;;;;;;;-2.10;100.00;99272.61;10216997;87;21482;-84
2021/01/31 09:22:10;;;;;;;;;;;;;;;-2.05;100.00;99286.06;10250479;85;21020;-83
2021/01/31 09:37:20;;;;;;;;;;;;;;;-1.87;100.00;99304.38;10617765;83;20174;-84
2021/01/31 09:52:25;;;;;;;72.08;28.30;;;;;;;-1.76;100.00;99304.28;10475260;84;20239;-82
2021/01/31 10:07:34;;;;;;;39.17;19.07;;;;;;;-1.43;100.00;99309.83;10460408;84;21099;-80
2021/01/31 10:22:42;;;;;;;47.83;20.12;;;;;;;-1.28;100.00;99327.02;10430989;84;21252;-85
2021/01/31 10:37:47;;;;;;;87.60;28.87;;;;;;;-1.06;100.00;99329.69;10462907;84;21128;-84
2021/01/31 10:52:52;;;;;;;26.73;12.80;;;;;;;-0.36;97.66;99318.44;10427877;84;21075;-85
2021/01/31 11:07:56;;;;;;;39.10;18.00;;;;;;;-0.37;95.27;99315.92;10339342;85;21144;-80
2021/01/31 11:23:01;;;;;;;187.43;48.52;;;;;;;-0.59;95.03;99318.47;10334825;85;21440;-77
2021/01/31 11:38:07;;;;;;;32.23;14.60;;;;;;;-0.42;93.53;99317.94;10148544;87;21244;-82
2021/01/31 11:53:12;;;;;;;58.83;21.20;;;;;;;-0.31;90.32;99316.88;10333190;84;21285;-80
2021/01/31 12:08:17;;;;;;;107.80;34.75;;;;;;;0.03;88.96;99316.17;10327132;85;21644;-82
2021/01/31 12:23:22;;;;;;;74.37;28.60;;;;;;;0.14;86.17;99311.18;9988767;88;21085;-78
2021/01/31 12:38:26;;;;;;;30.17;11.75;;;;;;;0.39;82.67;99297.27;10336356;85;21077;-79
2021/01/31 12:53:32;;;;;;;57.55;20.27;;;;;;;0.19;84.60;99298.49;10413258;84;21126;-82
2021/01/31 13:08:36;;;;;;;42.17;15.70;;;;;;;0.23;85.18;99294.33;10438067;84;21551;-81
2021/01/31 13:23:41;;;;;;;54.38;18.27;;;;;;;-0.28;87.42;99284.93;10494460;84;21035;-78
2021/01/31 13:38:45;;;;;;;44.05;19.50;;;;;;;-0.10;87.62;99279.16;10538248;84;21086;-78
2021/01/31 13:54:08;;;;;;;54.10;23.02;;;;;;;-0.35;89.83;99262.09;10443562;84;21196;-78
2021/01/31 14:09:14;;;;;;;25.32;10.23;;;;;;;1.09;87.16;99285.52;10392165;85;21169;-78
2021/01/31 14:24:19;;;;;;;28.63;12.00;;;;;;;0.04;84.47;99289.47;10149802;87;21189;-78
2021/01/31 14:39:24;;;;;;;21.52;9.00;;;;;;;-0.54;88.23;99275.23;10352016;85;21104;-81
2021/01/31 14:54:30;;;;;;;24.33;10.20;;;;;;;-0.75;89.68;99272.59;10314027;85;21068;-81
2021/01/31 15:09:38;;;;;;;32.53;14.55;;;;;;;-0.79;90.66;99273.25;10158769;87;21114;-80
2021/01/31 15:24:43;;;;;;;33.67;14.18;;;;;;;-0.77;91.83;99271.87;10390239;84;21072;-81
2021/01/31 15:39:49;;;;;;;26.85;12.53;;;;;;;-0.67;91.48;99259.66;10396366;85;21572;-85
2021/01/31 15:54:55;;;;;;;26.15;11.12;;;;;;;-1.04;96.04;99268.66;10337774;85;21497;-82
2021/01/31 16:09:59;;;;;;;32.00;13.32;;;;;;;-1.23;98.34;99258.11;10201176;87;21139;-78
2021/01/31 16:25:07;;;;;;;92.27;46.28;;;;;;;-1.26;99.73;99264.69;10358962;85;21031;-78
2021/01/31 16:40:16;;;;;;;24.65;12.13;;;;;;;-1.41;100.00;99266.38;10359991;85;21026;-78
2021/01/31 16:55:22;;;;;;;47.85;24.27;;;;;;;-1.44;100.00;99264.41;10253673;87;21102;-78
2021/01/31 17:10:28;;;;;;;114.50;41.37;;;;;;;-1.82;100.00;99272.02;10428466;85;21041;-79
2021/01/31 17:25:35;;;;;;;41.30;19.32;;;;;;;-1.73;100.00;99259.95;10410337;84;21542;-79
2021/01/31 17:40:40;;;;;;;95.60;40.30;;;;;;;-1.74;100.00;99260.00;10352741;85;21536;-79
2021/01/31 17:55:44;;;;;;;26.17;14.43;;;;;;;-1.91;100.00;99261.75;10222208;87;21043;-79
2021/01/31 18:10:49;;;;;;;35.05;16.10;;;;;;;-1.87;100.00;99258.09;10386457;85;21052;-80
2021/01/31 18:25:55;;;;;;;39.58;16.97;;;;;;;-2.03;100.00;99264.50;10320332;85;21446;-79
2021/01/31 18:40:59;;;;;;;42.53;15.63;;;;;;;-1.91;100.00;99268.17;10322438;85;21461;-78
2021/01/31 18:56:06;;;;;;;46.92;18.90;;;;;;;-2.07;100.00;99280.16;10542556;84;21492;-86
2021/01/31 19:11:11;;;;;;;46.37;18.92;;;;;;;-2.03;100.00;99272.69;10198833;87;21458;-80
2021/01/31 19:26:19;;;;;;;53.50;20.90;;;;;;;-2.12;100.00;99263.70;10182322;85;21109;-80
2021/01/31 19:41:24;;;;;;;39.98;17.52;;;;;;;-2.31;100.00;99252.70;10423548;85;21541;-80
2021/01/31 19:56:30;;;;;;;45.53;18.30;;;;;;;-2.33;100.00;99241.23;10188925;85;21141;-80
2021/01/31 20:11:35;;;;;;;44.65;16.80;;;;;;;-2.20;100.00;99233.26;10583784;84;21066;-81
2021/01/31 20:26:40;;;;;;;42.93;19.23;;;;;;;-2.23;100.00;99227.44;10634582;84;21043;-80
2021/01/31 20:41:44;;;;;;;38.80;17.37;;;;;;;-2.22;100.00;99256.94;10632803;84;21042;-80
2021/01/31 20:56:51;;;;;;;35.95;14.98;;;;;;;-2.11;100.00;99266.66;10623568;84;21090;-80
2021/01/31 21:11:55;;;;;;;46.70;20.48;;;;;;;-2.08;100.00;99266.48;10619757;84;21159;-79
2021/01/31 21:27:00;;;;;;;41.30;15.85;;;;;;;-2.09;100.00;99269.14;10574908;84;21138;-80
2021/01/31 21:42:05;;;;;;;48.75;20.60;;;;;;;-2.22;100.00;99268.94;10576726;84;21533;-80
2021/01/31 21:57:09;;;;;;;44.98;18.00;;;;;;;-2.30;100.00;99275.75;10580206;84;21039;-80
2021/01/31 22:12:13;;;;;;;43.05;18.17;;;;;;;-2.36;100.00;99285.89;10578690;84;21036;-79
2021/01/31 22:27:18;;;;;;;49.67;19.20;;;;;;;-2.55;100.00;99287.28;10575157;84;21035;-79
2021/01/31 22:42:23;;;;;;;46.37;19.45;;;;;;;-2.57;100.00;99290.83;10546402;84;21126;-79
2021/01/31 22:57:27;;;;;;;110.47;39.13;;;;;;;-2.51;100.00;99305.48;10579971;84;21497;-79
2021/01/31 23:12:33;;;;;;;42.03;18.00;;;;;;;-2.69;100.00;99312.34;10579827;84;21415;-80
2021/01/31 23:27:37;;;;;;;38.67;17.50;;;;;;;-2.84;100.00;99313.08;10577063;84;21512;-80
2021/01/31 23:42:42;;;;;;;40.40;16.62;;;;;;;-3.09;100.00;99319.83;10579204;84;21042;-79
2021/01/31 23:57:46;;;;;;;31.12;14.40;;;;;;;-2.93;100.00;99316.94;10579886;83;21485;-79
